createdAt,value
2017-11-05T00:06:03.942Z,3.04
2017-11-05T00:15:39.847Z,3.04
2017-11-05T00:25:21.002Z,3.04
2017-11-05T00:34:51.511Z,3.04
2017-11-05T00:44:27.616Z,3.04
2017-11-05T00:54:03.881Z,3.04
2017-11-05T01:03:40.178Z,3.04
2017-11-05T01:13:16.130Z,3.03
2017-11-05T01:22:53.210Z,3.03
2017-11-05T01:32:29.314Z,3.03
2017-11-05T01:42:05.418Z,3.03
2017-11-05T01:51:41.911Z,3.03
2017-11-05T02:01:18.297Z,3.03
2017-11-05T02:10:54.378Z,3.03
2017-11-05T02:20:30.622Z,3.03
2017-11-05T02:30:07.098Z,3.03
2017-11-05T02:39:43.309Z,3.03
2017-11-05T02:49:19.444Z,3.03
2017-11-05T02:58:55.442Z,3.03
2017-11-05T03:08:30.893Z,3.03
2017-11-05T03:18:08.187Z,3.03
2017-11-05T03:27:43.809Z,3.03
2017-11-05T03:37:19.526Z,3.03
2017-11-05T03:46:55.838Z,3.02
2017-11-05T03:56:31.999Z,3.02
2017-11-05T04:06:08.089Z,3.02
2017-11-05T04:15:44.444Z,3.02
2017-11-05T04:25:20.271Z,3.02
2017-11-05T04:34:57.439Z,3.02
2017-11-05T04:44:33.745Z,3.02
2017-11-05T04:54:09.699Z,3.01
2017-11-05T05:03:46.008Z,3.02
2017-11-05T05:13:21.887Z,3.02
2017-11-05T05:22:57.916Z,3.02
2017-11-05T05:32:34.230Z,3.02
2017-11-05T05:42:10.542Z,3.02
2017-11-05T05:51:50.319Z,3.02
2017-11-05T06:01:20.961Z,3.01
2017-11-05T06:10:56.764Z,3.02
2017-11-05T06:20:33.079Z,3.02
2017-11-05T06:30:09.684Z,3.03
2017-11-05T06:39:46.139Z,3.05
2017-11-05T06:49:23.148Z,3.05
2017-11-05T06:59:00.170Z,3.05
2017-11-05T07:08:36.415Z,3.05
2017-11-05T07:18:14.428Z,3.06
2017-11-05T07:27:51.926Z,3.06
2017-11-05T07:37:28.877Z,3.06
2017-11-05T07:47:06.079Z,3.06
2017-11-05T07:56:43.024Z,3.07
2017-11-05T08:06:20.312Z,3.07
2017-11-05T08:15:56.710Z,3.07
2017-11-05T08:25:33.363Z,3.08
2017-11-05T08:35:10.304Z,3.07
2017-11-05T08:44:46.648Z,3.08
2017-11-05T08:54:23.461Z,3.08
2017-11-05T09:04:00.476Z,3.08
2017-11-05T09:13:37.363Z,3.08
2017-11-05T09:23:14.793Z,3.08
2017-11-05T09:32:51.830Z,3.08
2017-11-05T09:42:28.594Z,3.08
2017-11-05T09:52:06.228Z,3.09
2017-11-05T10:01:43.450Z,3.08
2017-11-05T10:11:20.695Z,3.08
2017-11-05T10:20:58.036Z,3.08
2017-11-05T10:30:34.662Z,3.09
2017-11-05T10:40:11.755Z,3.08
2017-11-05T10:49:48.889Z,3.08
2017-11-05T10:59:25.648Z,3.08
2017-11-05T11:09:03.460Z,3.08
2017-11-05T11:18:40.461Z,3.08
2017-11-05T11:28:17.836Z,3.08
2017-11-05T11:37:56.035Z,3.08
2017-11-05T11:47:32.588Z,3.08
2017-11-05T11:57:08.927Z,3.08
2017-11-05T12:06:46.211Z,3.08
2017-11-05T12:16:23.460Z,3.08
2017-11-05T12:26:00.845Z,3.08
2017-11-05T12:35:38.006Z,3.08
2017-11-05T12:45:14.960Z,3.08
2017-11-05T12:54:51.527Z,3.08
2017-11-05T13:04:29.462Z,3.08
2017-11-05T13:14:06.406Z,3.08
2017-11-05T13:23:44.814Z,3.08
2017-11-05T13:33:21.654Z,3.08
2017-11-05T13:43:00.312Z,3.08
2017-11-05T13:52:37.743Z,3.08
2017-11-05T14:02:12.861Z,3.08
2017-11-05T14:11:46.646Z,3.08
2017-11-05T14:21:21.163Z,3.10
2017-11-05T14:30:56.872Z,3.09
2017-11-05T14:40:32.687Z,3.09
2017-11-05T14:50:07.968Z,3.11
2017-11-05T14:59:43.531Z,3.10
2017-11-05T15:09:19.167Z,3.10
2017-11-05T15:18:54.431Z,3.09
2017-11-05T15:28:33.276Z,3.09
2017-11-05T15:38:02.451Z,3.09
2017-11-05T15:47:38.659Z,3.08
2017-11-05T15:57:15.250Z,3.08
2017-11-05T16:06:50.432Z,3.08
2017-11-05T16:16:26.649Z,3.08
2017-11-05T16:26:02.234Z,3.08
2017-11-05T16:35:37.857Z,3.08
2017-11-05T16:45:13.580Z,3.07
2017-11-05T16:54:49.650Z,3.07
2017-11-05T17:04:25.675Z,3.07
2017-11-05T17:14:02.114Z,3.07
2017-11-05T17:23:39.149Z,3.07
2017-11-05T17:33:13.381Z,3.06
2017-11-05T17:42:55.272Z,3.06
2017-11-05T17:52:30.724Z,3.06
2017-11-05T18:02:07.312Z,3.06
2017-11-05T18:11:43.477Z,3.06
2017-11-05T18:21:19.943Z,3.06
2017-11-05T18:30:56.302Z,3.06
2017-11-05T18:40:30.551Z,3.06
2017-11-05T18:50:06.697Z,3.06
2017-11-05T18:59:42.694Z,3.06
2017-11-05T19:09:19.165Z,3.06
2017-11-05T19:18:56.017Z,3.06
2017-11-05T19:28:32.431Z,3.06
2017-11-05T19:38:07.371Z,3.06
2017-11-05T19:47:49.708Z,3.06
2017-11-05T19:57:26.056Z,3.06
2017-11-05T20:07:02.058Z,3.06
2017-11-05T20:16:40.088Z,3.06
2017-11-05T20:26:15.743Z,3.06
2017-11-05T20:35:52.954Z,3.06
2017-11-05T20:45:27.140Z,3.06
2017-11-05T20:55:03.679Z,3.06
2017-11-05T21:04:39.749Z,3.06
2017-11-05T21:14:16.863Z,3.06
2017-11-05T21:23:51.893Z,3.06
2017-11-05T21:33:28.591Z,3.06
2017-11-05T21:43:04.826Z,3.06
2017-11-05T21:52:41.236Z,3.06
2017-11-05T22:02:17.437Z,3.06
2017-11-05T22:11:53.284Z,3.06
2017-11-05T22:21:30.109Z,3.06
2017-11-05T22:31:07.375Z,3.06
2017-11-05T22:40:43.860Z,2.98
2017-11-05T22:50:20.533Z,3.06
2017-11-05T22:59:56.639Z,3.06
2017-11-05T23:09:33.025Z,3.06
2017-11-05T23:19:09.870Z,3.06
2017-11-05T23:28:46.072Z,3.06
2017-11-05T23:38:21.968Z,3.06
2017-11-05T23:47:58.385Z,3.06
2017-11-05T23:57:35.855Z,3.06
